Time;durP1;ratioP1;P1;durP2;ratioP2;P2;SDS_P1;SDS_P2;PMS_P1;PMS_P2;Temp;Humidity;BMP_temperature;BMP_pressure;BME280_temperature;BME280_humidity;BME280_pressure;Samples;Min_cycle;Max_cycle;Signal;HPM_P1;HPM_P2
2022/09/16 00:00:35;;;;;;;5.38;1.15;;;;;;;12.53;100.00;101172.53;5260141;28;20038;-72
2022/09/16 00:03:05;;;;;;;10.40;1.73;;;;;;;12.52;100.00;101162.78;5287031;28;20023;-72
2022/09/16 00:05:55;;;;;;;9.75;2.20;;;;;;;12.47;100.00;101167.84;5284787;28;20448;-71
2022/09/16 00:08:25;;;;;;;8.27;1.42;;;;;;;12.45;100.00;101169.88;5265961;28;20040;-72
2022/09/16 00:10:59;;;;;;;6.47;1.40;;;;;;;12.39;100.00;101165.16;5252135;28;20380;-72
2022/09/16 00:13:30;;;;;;;13.30;1.73;;;;;;;12.35;100.00;101161.97;5278524;28;20020;-72
2022/09/16 00:16:00;;;;;;;6.00;1.20;;;;;;;12.30;100.00;101158.09;5270001;28;20030;-72
2022/09/16 00:18:31;;;;;;;8.35;1.73;;;;;;;12.25;100.00;101163.13;5279638;28;20103;-72
2022/09/16 00:21:05;;;;;;;5.05;1.38;;;;;;;12.16;100.00;101160.47;5277874;28;20110;-71
2022/09/16 00:23:36;;;;;;;5.40;1.30;;;;;;;12.11;100.00;101160.13;5249529;28;20028;-72
2022/09/16 00:26:07;;;;;;;7.13;1.45;;;;;;;12.04;100.00;101159.13;5275825;28;20102;-72
2022/09/16 00:28:37;;;;;;;9.27;1.42;;;;;;;11.96;100.00;101158.31;5264948;28;20028;-72
2022/09/16 00:31:08;;;;;;;8.75;1.67;;;;;;;11.87;100.00;101160.97;5265178;28;20073;-71
2022/09/16 00:33:39;;;;;;;7.78;1.35;;;;;;;11.77;100.00;101159.41;5264762;28;20042;-71
2022/09/16 00:36:14;;;;;;;8.38;1.33;;;;;;;11.66;100.00;101157.91;5270369;28;20123;-72
2022/09/16 00:38:45;;;;;;;5.43;1.35;;;;;;;11.54;100.00;101151.97;5264810;28;20252;-72
2022/09/16 00:41:18;;;;;;;7.75;1.75;;;;;;;11.44;100.00;101150.44;5264910;28;20493;-71
2022/09/16 00:44:25;;;;;;;9.90;1.88;;;;;;;11.34;100.00;101162.19;5265222;28;20024;-72
2022/09/16 00:46:56;;;;;;;9.10;1.55;;;;;;;11.30;100.00;101158.16;5264714;28;20067;-72
2022/09/16 00:49:29;;;;;;;6.38;1.55;;;;;;;11.28;100.00;101157.47;5266337;28;20043;-72
2022/09/16 00:52:04;;;;;;;5.70;1.58;;;;;;;11.23;100.00;101156.28;5286063;28;20481;-71
2022/09/16 00:54:37;;;;;;;6.55;1.70;;;;;;;11.13;100.00;101161.78;5267091;28;20024;-71
2022/09/16 00:57:10;;;;;;;11.27;1.45;;;;;;;11.05;100.00;101159.91;5264742;28;20500;-72
2022/09/16 00:59:46;;;;;;;11.73;1.80;;;;;;;10.98;100.00;101160.72;5270415;28;20030;-71
2022/09/16 01:02:19;;;;;;;10.20;1.50;;;;;;;10.89;100.00;101158.00;5275204;28;20024;-71
2022/09/16 01:04:57;;;;;;;8.32;1.80;;;;;;;10.82;100.00;101164.16;5285556;28;20019;-71
2022/09/16 01:07:35;;;;;;;5.60;1.35;;;;;;;10.74;100.00;101156.06;5269719;28;20027;-71
2022/09/16 01:10:07;;;;;;;7.22;2.03;;;;;;;10.71;100.00;101162.59;5277343;28;20437;-72
2022/09/16 01:12:40;;;;;;;6.57;1.75;;;;;;;10.72;100.00;101164.28;5286389;28;20392;-71
2022/09/16 01:15:13;;;;;;;10.50;1.65;;;;;;;10.74;100.00;101164.09;5285123;28;20038;-71
2022/09/16 01:18:21;;;;;;;6.13;1.48;;;;;;;10.76;100.00;101162.97;5272862;28;20020;-71
2022/09/16 01:20:58;;;;;;;7.32;1.40;;;;;;;10.80;100.00;101158.97;5279454;28;20036;-71
2022/09/16 01:24:06;;;;;;;6.80;1.67;;;;;;;10.89;100.00;101167.88;5266131;28;20397;-71
2022/09/16 01:27:13;;;;;;;5.25;1.40;;;;;;;10.95;100.00;101169.94;5271977;28;20064;-71
2022/09/16 01:30:12;;;;;;;5.28;1.30;;;;;;;10.98;100.00;101168.75;5278838;28;20102;-72
2022/09/16 01:33:03;;;;;;;14.65;1.58;;;;;;;10.97;100.00;101167.09;5277514;28;20118;-72
2022/09/16 01:35:52;;;;;;;3.95;1.45;;;;;;;10.92;100.00;101164.03;5278949;28;20063;-72
2022/09/16 01:38:23;;;;;;;12.27;1.55;;;;;;;10.89;100.00;101170.56;5266477;28;20454;-71
2022/09/16 01:41:30;;;;;;;10.52;1.58;;;;;;;10.85;100.00;101167.38;5265577;28;20024;-71
2022/09/16 01:44:22;;;;;;;7.07;1.38;;;;;;;10.82;100.00;101164.16;5265334;28;20059;-72
2022/09/16 01:47:17;;;;;;;6.95;1.70;;;;;;;10.79;100.00;101159.97;5285436;28;20143;-71
2022/09/16 01:50:20;;;;;;;8.95;1.50;;;;;;;10.79;100.00;101168.03;5268019;28;20485;-72
2022/09/16 01:52:57;;;;;;;14.40;1.63;;;;;;;10.80;100.00;101163.50;5278291;28;20016;-72
2022/09/16 01:55:56;;;;;;;4.22;1.45;;;;;;;10.89;100.00;101149.94;5276396;28;20038;-72
2022/09/16 01:58:47;;;;;;;11.40;2.10;;;;;;;10.97;100.00;101150.97;5277050;28;20381;-70
2022/09/16 02:01:31;;;;;;;9.88;2.47;;;;;;;11.04;100.00;101160.91;5265642;28;20044;-70
2022/09/16 02:04:09;;;;;;;9.82;1.80;;;;;;;11.10;100.00;101152.22;5286009;28;20035;-71
2022/09/16 02:06:44;;;;;;;11.23;2.13;;;;;;;11.22;100.00;101154.59;5289832;28;20114;-70
2022/09/16 02:09:21;;;;;;;10.55;2.90;;;;;;;11.32;100.00;101150.75;5272057;28;20032;-71
2022/09/16 02:11:56;;;;;;;9.07;1.83;;;;;;;11.40;100.00;101150.78;5276613;28;20415;-71
2022/09/16 02:14:30;;;;;;;9.52;1.75;;;;;;;11.52;100.00;101154.00;5289236;28;20023;-71
2022/09/16 02:17:06;;;;;;;9.80;1.50;;;;;;;11.62;100.00;101154.69;5274368;28;20020;-71
2022/09/16 02:19:43;;;;;;;7.07;1.35;;;;;;;11.60;100.00;101151.34;5278281;28;20524;-70
2022/09/16 02:22:31;;;;;;;6.35;1.58;;;;;;;11.59;100.00;101152.31;5271433;28;20024;-71
2022/09/16 02:25:07;;;;;;;6.72;1.38;;;;;;;11.56;100.00;101158.06;5268828;28;20080;-71
2022/09/16 02:27:40;;;;;;;3.75;1.27;;;;;;;11.55;100.00;101152.84;5269165;28;20024;-72
2022/09/16 02:30:21;;;;;;;15.10;1.30;;;;;;;11.51;100.00;101149.66;5282595;28;20028;-71
2022/09/16 02:33:12;;;;;;;7.20;1.70;;;;;;;11.50;100.00;101147.13;5281576;28;20030;-71
2022/09/16 02:35:47;;;;;;;7.60;1.48;;;;;;;11.43;100.00;101149.63;5284284;28;20022;-71
2022/09/16 02:38:24;;;;;;;4.22;1.13;;;;;;;11.39;100.00;101145.56;5273513;28;20070;-72
2022/09/16 02:40:57;;;;;;;7.45;1.38;;;;;;;11.35;100.00;101153.13;5270213;28;20024;-71
2022/09/16 02:43:28;;;;;;;11.65;1.50;;;;;;;11.30;100.00;101152.78;5268774;28;20347;-71
2022/09/16 02:46:17;;;;;;;7.15;1.65;;;;;;;11.31;100.00;101153.63;5280512;28;20047;-71
2022/09/16 02:49:20;;;;;;;11.20;2.63;;;;;;;11.23;100.00;101154.44;5276994;28;20026;-71
2022/09/16 02:52:23;;;;;;;13.27;2.78;;;;;;;11.24;100.00;101158.78;5275619;28;20019;-71
2022/09/16 02:55:00;;;;;;;8.95;1.40;;;;;;;11.29;100.00;101158.31;5287754;28;20034;-71
2022/09/16 02:57:31;;;;;;;4.95;1.13;;;;;;;11.34;100.00;101161.34;5274179;28;20531;-71
2022/09/16 03:00:03;;;;;;;12.93;2.80;;;;;;;11.38;100.00;101154.63;5288278;28;20032;-72
2022/09/16 03:02:34;;;;;;;3.60;1.17;;;;;;;11.36;100.00;101152.13;5278375;28;20111;-71
2022/09/16 03:05:05;;;;;;;6.18;1.10;;;;;;;11.34;100.00;101156.81;5287385;28;20028;-71
2022/09/16 03:07:38;;;;;;;11.52;1.60;;;;;;;11.39;100.00;101159.00;5270190;28;20116;-71
2022/09/16 03:10:13;;;;;;;7.82;1.50;;;;;;;11.45;100.00;101162.91;5267128;28;20027;-71
2022/09/16 03:12:55;;;;;;;9.50;1.30;;;;;;;11.53;100.00;101158.38;5273573;28;20031;-71
2022/09/16 03:15:49;;;;;;;4.82;1.63;;;;;;;11.75;100.00;101167.66;5286326;28;20491;-71
2022/09/16 03:18:35;;;;;;;7.00;1.25;;;;;;;11.95;100.00;101170.91;5275098;28;20509;-72
2022/09/16 03:21:14;;;;;;;7.00;1.38;;;;;;;11.97;100.00;101163.50;5276101;28;20051;-73
2022/09/16 03:24:00;;;;;;;4.53;1.77;;;;;;;11.91;100.00;101156.94;5284116;28;20119;-73
2022/09/16 03:26:49;;;;;;;;;;;;;;;11.83;100.00;101153.41;5266379;28;20107;-72
2022/09/16 03:29:36;;;;;;;5.43;1.35;;;;;;;11.79;100.00;101168.16;5276779;28;20277;-72
2022/09/16 03:32:20;;;;;;;27.35;1.95;;;;;;;11.77;100.00;101167.47;5268383;28;20055;-71
2022/09/16 03:34:58;;;;;;;6.65;1.63;;;;;;;11.79;100.00;101166.28;5273272;28;20015;-73
2022/09/16 03:37:33;;;;;;;6.55;1.20;;;;;;;11.81;100.00;101158.09;5277847;28;20051;-71
2022/09/16 03:40:09;;;;;;;8.23;1.60;;;;;;;11.83;100.00;101159.63;5286128;28;20055;-71
2022/09/16 03:42:42;;;;;;;8.68;1.50;;;;;;;11.83;100.00;101150.72;5287865;28;20024;-71
2022/09/16 03:45:16;;;;;;;6.97;1.50;;;;;;;11.84;100.00;101152.38;5266456;28;20015;-71
2022/09/16 03:47:49;;;;;;;9.18;1.75;;;;;;;11.83;100.00;101153.41;5267717;28;20020;-72
2022/09/16 03:50:21;;;;;;;15.98;1.75;;;;;;;11.82;100.00;101151.72;5278564;28;20115;-72
2022/09/16 03:52:51;;;;;;;5.75;1.42;;;;;;;11.82;100.00;101157.09;5269960;28;20023;-72
2022/09/16 03:55:22;;;;;;;6.57;1.35;;;;;;;11.81;100.00;101153.53;5275756;28;20020;-73
2022/09/16 03:57:53;;;;;;;4.88;1.50;;;;;;;11.80;100.00;101162.63;5284458;28;20019;-72
2022/09/16 04:00:23;;;;;;;5.60;1.02;;;;;;;11.77;100.00;101156.72;5274540;28;20097;-72
2022/09/16 04:02:54;;;;;;;8.40;1.65;;;;;;;11.77;100.00;101162.09;5273901;28;20024;-72
2022/09/16 04:05:25;;;;;;;3.38;1.48;;;;;;;11.75;100.00;101162.28;5286574;28;20058;-73
2022/09/16 04:07:55;;;;;;;10.40;2.83;;;;;;;11.77;100.00;101156.72;5266422;28;20047;-72
2022/09/16 04:10:26;;;;;;;7.45;1.30;;;;;;;11.79;100.00;101166.28;5266383;28;20031;-72
2022/09/16 04:12:57;;;;;;;6.00;1.23;;;;;;;11.82;100.00;101162.47;5287219;28;20059;-72
2022/09/16 04:15:28;;;;;;;7.75;1.40;;;;;;;11.84;100.00;101172.03;5265776;28;20032;-72
2022/09/16 04:17:59;;;;;;;8.68;1.42;;;;;;;11.87;100.00;101168.19;5265965;28;20028;-72
2022/09/16 04:20:29;;;;;;;12.63;1.50;;;;;;;11.87;100.00;101166.34;5265964;28;20385;-72
2022/09/16 04:23:00;;;;;;;7.93;1.60;;;;;;;11.88;100.00;101161.81;5276633;28;20039;-72
2022/09/16 04:25:30;;;;;;;5.88;1.58;;;;;;;11.90;100.00;101155.28;5271820;28;20042;-72
2022/09/16 04:28:01;;;;;;;3.85;1.40;;;;;;;11.90;100.00;101159.81;5257069;28;20038;-72
2022/09/16 04:30:31;;;;;;;14.13;1.75;;;;;;;11.92;100.00;101163.16;5265592;28;20593;-72
2022/09/16 04:33:02;;;;;;;10.45;1.58;;;;;;;11.89;100.00;101156.25;5265888;28;20108;-72
2022/09/16 04:35:32;;;;;;;7.93;1.58;;;;;;;11.90;100.00;101151.75;5278077;28;20028;-71
2022/09/16 04:38:03;;;;;;;7.65;1.35;;;;;;;11.96;100.00;101152.91;5272340;28;20028;-72
2022/09/16 04:40:33;;;;;;;9.90;1.52;;;;;;;11.98;100.00;101145.50;5265952;28;20032;-71
2022/09/16 04:43:04;;;;;;;3.97;1.05;;;;;;;11.98;100.00;101150.88;5265638;28;20493;-71
2022/09/16 04:45:35;;;;;;;3.90;1.02;;;;;;;12.02;100.00;101158.47;5265099;28;20431;-72
2022/09/16 04:48:05;;;;;;;5.28;1.30;;;;;;;12.06;100.00;101150.91;5279090;28;20035;-72
2022/09/16 04:50:35;;;;;;;5.43;1.38;;;;;;;12.07;100.00;101152.56;5275993;28;20352;-72
2022/09/16 04:53:06;;;;;;;3.17;0.93;;;;;;;12.06;100.00;101156.28;5267983;28;20020;-71
2022/09/16 04:55:36;;;;;;;7.05;2.08;;;;;;;12.06;100.00;101149.06;5276893;28;20019;-71
2022/09/16 04:58:07;;;;;;;3.17;0.80;;;;;;;12.05;100.00;101152.75;5272309;28;20053;-71
2022/09/16 05:00:37;;;;;;;6.80;0.90;;;;;;;12.02;100.00;101150.38;5285752;28;20354;-71
2022/09/16 05:03:08;;;;;;;4.53;0.80;;;;;;;11.98;100.00;101157.09;5275661;28;20469;-72
2022/09/16 05:05:38;;;;;;;4.22;1.02;;;;;;;11.90;100.00;101149.91;5283795;28;20034;-72
2022/09/16 05:08:08;;;;;;;3.58;0.77;;;;;;;11.83;100.00;101165.00;5265479;28;20568;-72
2022/09/16 05:10:39;;;;;;;4.07;1.02;;;;;;;11.83;100.00;101164.16;5267277;28;20077;-72
2022/09/16 05:13:10;;;;;;;3.88;0.90;;;;;;;11.81;100.00;101156.22;5286095;28;20066;-71
2022/09/16 05:15:40;;;;;;;4.20;0.98;;;;;;;11.80;100.00;101153.72;5281825;28;20031;-71
2022/09/16 05:18:11;;;;;;;8.05;1.00;;;;;;;11.76;100.00;101161.28;5264996;28;20021;-71
2022/09/16 05:20:41;;;;;;;4.75;1.17;;;;;;;11.79;100.00;101163.59;5269988;28;20536;-71
2022/09/16 05:23:11;;;;;;;4.45;0.80;;;;;;;11.74;100.00;101173.19;5273170;28;20028;-71
2022/09/16 05:25:42;;;;;;;6.30;1.30;;;;;;;11.70;100.00;101167.31;5283879;28;20119;-71
2022/09/16 05:28:12;;;;;;;5.97;0.93;;;;;;;11.68;100.00;101178.22;5272743;28;20107;-72
2022/09/16 05:30:43;;;;;;;3.67;1.00;;;;;;;11.67;100.00;101173.84;5285971;28;20116;-72
2022/09/16 05:33:13;;;;;;;6.90;0.93;;;;;;;11.67;100.00;101173.84;5284797;28;20023;-73
2022/09/16 05:35:44;;;;;;;12.93;1.13;;;;;;;11.73;100.00;101174.19;5270762;28;20401;-72
2022/09/16 05:38:15;;;;;;;5.50;0.80;;;;;;;11.78;100.00;101182.59;5269763;28;20423;-72
2022/09/16 05:40:45;;;;;;;4.13;1.20;;;;;;;11.80;100.00;101173.38;5280133;28;20063;-73
2022/09/16 05:43:16;;;;;;;3.67;0.63;;;;;;;11.85;100.00;101183.66;5273972;28;20024;-73
2022/09/16 05:45:51;;;;;;;1.48;0.63;;;;;;;11.89;100.00;101180.44;5269609;28;20572;-72
2022/09/16 05:48:22;;;;;;;2.30;0.82;;;;;;;11.96;100.00;101186.03;5270798;28;20024;-72
2022/09/16 05:50:56;;;;;;;2.80;0.77;;;;;;;12.03;100.00;101175.44;5273788;28;20031;-72
2022/09/16 05:53:28;;;;;;;3.65;1.02;;;;;;;12.05;100.00;101176.97;5282797;28;20389;-72
2022/09/16 05:56:18;;;;;;;2.58;0.88;;;;;;;12.09;100.00;101175.59;5287238;28;20030;-73
2022/09/16 05:58:52;;;;;;;3.22;0.98;;;;;;;12.21;100.00;101178.81;5280638;28;20059;-71
2022/09/16 06:01:26;;;;;;;3.85;0.98;;;;;;;12.31;100.00;101184.00;5289818;28;20035;-72
2022/09/16 06:03:57;;;;;;;6.20;0.98;;;;;;;12.30;100.00;101177.78;5289363;28;20105;-73
2022/09/16 06:06:29;;;;;;;4.38;1.20;;;;;;;12.36;100.00;101170.88;5280597;28;20028;-72
2022/09/16 06:09:17;;;;;;;6.82;0.88;;;;;;;12.35;100.00;101178.13;5267845;28;20031;-72
2022/09/16 06:11:49;;;;;;;5.78;0.95;;;;;;;12.36;100.00;101182.47;5268920;28;20024;-73
2022/09/16 06:14:21;;;;;;;6.35;0.95;;;;;;;12.42;100.00;101186.34;5273041;28;20481;-72
2022/09/16 06:16:52;;;;;;;5.43;0.70;;;;;;;12.39;100.00;101192.06;5286001;28;20076;-71
2022/09/16 06:19:22;;;;;;;4.05;0.90;;;;;;;12.38;100.00;101190.38;5268034;28;20404;-71
2022/09/16 06:21:53;;;;;;;2.97;0.80;;;;;;;12.41;100.00;101188.19;5269872;28;20028;-71
2022/09/16 06:24:23;;;;;;;3.85;1.25;;;;;;;12.36;100.00;101197.78;5288894;28;20027;-70
2022/09/16 06:26:54;;;;;;;5.20;0.88;;;;;;;12.34;100.00;101203.31;5272187;28;20378;-71
2022/09/16 06:29:25;;;;;;;6.70;0.80;;;;;;;12.30;100.00;101203.81;5268172;28;20023;-70
2022/09/16 06:31:55;;;;;;;10.82;1.00;;;;;;;12.29;100.00;101202.97;5267909;28;20516;-70
2022/09/16 06:34:26;;;;;;;7.80;1.15;;;;;;;12.25;100.00;101201.66;5268239;27;20039;-70
2022/09/16 06:36:57;;;;;;;2.40;0.88;;;;;;;12.26;100.00;101214.09;5266872;28;20052;-71
2022/09/16 06:39:27;;;;;;;8.57;1.45;;;;;;;12.10;100.00;101197.97;5264282;28;20020;-72
2022/09/16 06:41:58;;;;;;;4.22;1.20;;;;;;;11.97;100.00;101194.94;5272102;28;20020;-72
2022/09/16 06:44:28;;;;;;;7.28;1.88;;;;;;;11.90;100.00;101194.75;5285423;28;20536;-72
2022/09/16 06:46:59;;;;;;;7.38;1.27;;;;;;;11.87;100.00;101197.78;5259609;28;20489;-72
2022/09/16 06:49:30;;;;;;;9.10;1.08;;;;;;;11.88;100.00;101196.75;5263651;28;20095;-71
2022/09/16 06:52:00;;;;;;;8.18;1.20;;;;;;;11.89;100.00;101201.13;5264364;28;20500;-72
2022/09/16 06:54:30;;;;;;;5.28;0.95;;;;;;;11.91;100.00;101207.19;5267772;28;20347;-72
2022/09/16 06:57:01;;;;;;;7.53;0.88;;;;;;;11.93;100.00;101205.16;5285741;28;20020;-72
2022/09/16 06:59:31;;;;;;;1.70;0.70;;;;;;;11.97;100.00;101217.28;5265698;28;20432;-72
2022/09/16 07:02:02;;;;;;;6.07;0.88;;;;;;;11.98;100.00;101218.09;5265147;28;20394;-72
2022/09/16 07:04:34;;;;;;;3.72;0.90;;;;;;;12.04;100.00;101222.81;5283294;28;20016;-72
2022/09/16 07:07:04;;;;;;;13.23;1.23;;;;;;;12.03;100.00;101221.97;5266715;28;20105;-71
2022/09/16 07:09:35;;;;;;;4.97;1.30;;;;;;;12.02;100.00;101222.16;5270332;28;20343;-72
2022/09/16 07:12:06;;;;;;;13.05;1.10;;;;;;;12.02;100.00;101219.47;5285383;28;20176;-72
2022/09/16 07:14:37;;;;;;;9.85;1.73;;;;;;;12.01;100.00;101233.94;5275643;28;20024;-72
2022/09/16 07:17:07;;;;;;;5.85;0.90;;;;;;;11.97;100.00;101232.56;5268616;28;20042;-72
2022/09/16 07:19:39;;;;;;;4.38;1.10;;;;;;;11.96;100.00;101220.13;5263280;28;20028;-72
2022/09/16 07:22:10;;;;;;;9.13;1.63;;;;;;;11.95;100.00;101219.31;5271176;28;20078;-72
2022/09/16 07:24:40;;;;;;;7.68;1.10;;;;;;;11.98;100.00;101218.09;5284244;28;20037;-71
2022/09/16 07:27:11;;;;;;;6.13;1.65;;;;;;;12.03;100.00;101215.75;5271289;28;20328;-71
2022/09/16 07:29:41;;;;;;;5.80;1.42;;;;;;;12.07;100.00;101219.81;5283916;28;20023;-72
2022/09/16 07:32:12;;;;;;;11.40;1.23;;;;;;;12.14;100.00;101224.34;5270912;28;20034;-71
2022/09/16 07:34:42;;;;;;;6.85;1.10;;;;;;;12.24;100.00;101223.34;5283778;28;20051;-72
2022/09/16 07:37:13;;;;;;;5.18;1.35;;;;;;;12.35;100.00;101226.56;5284936;28;20032;-72
2022/09/16 07:39:44;;;;;;;9.05;1.33;;;;;;;12.51;100.00;101236.47;5269416;28;20482;-72
2022/09/16 07:42:15;;;;;;;8.25;1.15;;;;;;;12.65;100.00;101229.53;5272720;28;20035;-71
2022/09/16 07:44:45;;;;;;;10.63;1.95;;;;;;;12.75;100.00;101243.66;5281493;28;20098;-72
2022/09/16 07:47:16;;;;;;;1.70;0.90;;;;;;;12.88;100.00;101241.28;5264046;28;20032;-71
2022/09/16 07:49:47;;;;;;;11.02;1.48;;;;;;;12.96;100.00;101245.81;5277356;28;20073;-72
2022/09/16 07:52:19;;;;;;;9.75;1.90;;;;;;;12.91;100.00;101254.41;5263403;28;20056;-71
2022/09/16 07:54:49;;;;;;;8.50;1.40;;;;;;;12.85;100.00;101255.09;5281414;28;20386;-71
2022/09/16 07:57:20;;;;;;;16.30;2.58;;;;;;;12.79;100.00;101261.13;5284391;28;20020;-72
2022/09/16 07:59:51;;;;;;;8.57;1.98;;;;;;;12.69;100.00;101261.31;5276577;28;20348;-72
2022/09/16 08:02:21;;;;;;;6.80;1.60;;;;;;;12.55;100.00;101253.09;5248847;28;20069;-72
2022/09/16 08:04:52;;;;;;;8.05;2.03;;;;;;;12.43;100.00;101253.44;5279281;28;20566;-72
2022/09/16 08:07:22;;;;;;;13.43;2.30;;;;;;;12.35;100.00;101248.06;5272332;28;20410;-72
2022/09/16 08:09:53;;;;;;;16.73;2.72;;;;;;;12.35;100.00;101239.13;5279763;28;20462;-72
2022/09/16 08:12:23;;;;;;;7.28;2.17;;;;;;;12.29;100.00;101234.44;5280900;28;20534;-72
2022/09/16 08:14:54;;;;;;;8.15;2.28;;;;;;;12.34;100.00;101235.59;5280582;28;20481;-72
2022/09/16 08:17:25;;;;;;;2.92;1.60;;;;;;;12.40;100.00;101234.13;5281536;28;20032;-72
2022/09/16 08:19:56;;;;;;;5.38;2.10;;;;;;;12.50;100.00;101242.00;5281082;28;20548;-72
2022/09/16 08:22:26;;;;;;;3.65;1.83;;;;;;;12.61;100.00;101239.81;5280260;28;20156;-72
2022/09/16 08:24:56;;;;;;;8.75;2.20;;;;;;;12.77;100.00;101252.41;5262266;28;20020;-72
2022/09/16 08:27:27;;;;;;;4.93;2.30;;;;;;;12.94;100.00;101251.34;5281308;28;20173;-72
2022/09/16 08:29:57;;;;;;;12.00;2.40;;;;;;;13.18;100.00;101252.31;5280017;28;20474;-72
2022/09/16 08:32:28;;;;;;;11.25;2.75;;;;;;;13.48;100.00;101258.78;5281541;28;20049;-71
2022/09/16 08:34:58;;;;;;;11.63;2.97;;;;;;;13.63;100.00;101262.44;5279363;28;20389;-72
2022/09/16 08:37:29;;;;;;;8.00;2.17;;;;;;;13.72;100.00;101250.59;5282093;28;20080;-71
2022/09/16 08:39:59;;;;;;;10.48;2.00;;;;;;;13.75;100.00;101260.16;5280364;28;20016;-71
2022/09/16 08:42:58;;;;;;;5.70;2.00;;;;;;;13.74;100.00;101271.97;5281266;28;20536;-72
2022/09/16 08:45:51;;;;;;;14.95;1.48;;;;;;;13.78;100.00;101278.69;5280630;28;20118;-72
2022/09/16 08:48:22;;;;;;;7.70;1.60;;;;;;;13.74;100.00;101285.44;5281000;28;20055;-72
2022/09/16 08:50:55;;;;;;;5.88;1.30;;;;;;;13.72;100.00;101282.09;5281079;28;20739;-72
2022/09/16 08:53:46;;;;;;;8.02;1.38;;;;;;;13.72;100.00;101288.34;5281950;28;20019;-71
2022/09/16 08:56:21;;;;;;;7.00;1.58;;;;;;;13.54;100.00;101284.19;5279400;28;21636;-71
2022/09/16 08:58:55;;;;;;;7.57;1.42;;;;;;;13.45;100.00;101278.88;5280816;28;20015;-72
2022/09/16 09:01:48;;;;;;;3.00;1.40;;;;;;;13.36;100.00;101282.59;5259968;28;20030;-70
2022/09/16 09:04:18;;;;;;;9.15;1.38;;;;;;;13.38;100.00;101282.41;5281711;28;20016;-71
2022/09/16 09:06:57;;;;;;;6.93;1.25;;;;;;;13.46;100.00;101279.69;5285479;28;20491;-70
2022/09/16 09:09:51;;;;;;;5.90;1.33;;;;;;;13.62;100.00;101287.72;5278764;28;20027;-71
2022/09/16 09:12:55;;;;;;;4.80;1.52;;;;;;;13.71;100.00;101289.34;5263668;28;20023;-71
2022/09/16 09:15:37;;;;;;;8.10;1.55;;;;;;;13.85;100.00;101303.09;5275396;28;20020;-71
2022/09/16 09:18:25;;;;;;;7.68;2.30;;;;;;;13.80;100.00;101297.38;5276047;28;20015;-71
2022/09/16 09:21:09;;;;;;;9.05;1.48;;;;;;;13.64;100.00;101306.41;5260565;28;20047;-72
2022/09/16 09:23:57;;;;;;;8.23;1.65;;;;;;;13.42;100.00;101295.38;5261254;28;20068;-72
2022/09/16 09:27:05;;;;;;;11.07;1.60;;;;;;;13.20;100.00;101305.00;5260921;28;20028;-71
2022/09/16 09:29:46;;;;;;;7.35;1.30;;;;;;;13.07;100.00;101295.78;5261376;28;20385;-71
2022/09/16 09:32:48;;;;;;;5.07;1.52;;;;;;;12.96;100.00;101296.97;5261306;28;20089;-71
2022/09/16 09:35:48;;;;;;;9.63;1.80;;;;;;;12.99;100.00;101312.78;5265183;28;20028;-71
2022/09/16 09:38:48;;;;;;;2.25;1.35;;;;;;;12.82;100.00;101301.19;5265339;28;20475;-72
2022/09/16 09:41:26;;;;;;;7.03;1.30;;;;;;;12.80;100.00;101297.84;5267050;28;20031;-71
2022/09/16 09:44:20;;;;;;;4.80;0.80;;;;;;;12.73;100.00;101293.28;5243777;28;20036;-71
2022/09/16 09:46:56;;;;;;;6.55;1.00;;;;;;;12.63;100.00;101288.09;5261596;28;20020;-74
2022/09/16 09:49:45;;;;;;;6.38;1.95;;;;;;;12.58;100.00;101279.66;5261006;28;20466;-71
2022/09/16 09:52:27;;;;;;;5.82;1.00;;;;;;;12.59;100.00;101268.72;5262285;28;20036;-71
2022/09/16 09:55:13;;;;;;;7.15;0.90;;;;;;;12.78;100.00;101283.69;5261759;28;20359;-71
2022/09/16 09:57:58;;;;;;;4.63;0.77;;;;;;;13.37;100.00;101286.13;5263082;28;20054;-71
2022/09/16 10:00:28;;;;;;;7.60;1.05;;;;;;;14.25;100.00;101288.50;5263534;28;20401;-71
2022/09/16 10:03:04;;;;;;;8.55;0.90;;;;;;;15.23;100.00;101277.69;5282153;28;20019;-70
2022/09/16 10:05:35;;;;;;;6.07;0.90;;;;;;;15.79;100.00;101283.44;5280579;28;20146;-71
2022/09/16 10:08:25;;;;;;;4.68;0.65;;;;;;;16.08;100.00;101270.88;5274018;28;20237;-71
2022/09/16 10:10:58;;;;;;;7.78;0.90;;;;;;;16.11;100.00;101284.00;5260727;28;20024;-71
2022/09/16 10:13:30;;;;;;;8.80;1.13;;;;;;;15.82;100.00;101297.63;5273472;28;20059;-71
2022/09/16 10:16:19;;;;;;;4.72;1.17;;;;;;;15.43;100.00;101293.34;5274384;28;20028;-71
2022/09/16 10:19:27;;;;;;;10.40;1.30;;;;;;;14.61;100.00;101288.78;5273743;28;20020;-71
2022/09/16 10:22:10;;;;;;;2.00;0.70;;;;;;;13.71;100.00;101291.22;5275443;28;20035;-71
2022/09/16 10:24:42;;;;;;;3.90;1.35;;;;;;;13.36;100.00;101298.75;5263619;28;20443;-72
2022/09/16 10:27:26;;;;;;;2.00;0.90;;;;;;;13.11;100.00;101295.25;5283990;28;20477;-71
2022/09/16 10:30:17;;;;;;;2.22;1.00;;;;;;;13.02;100.00;101282.81;5270875;28;20031;-71
2022/09/16 10:32:50;;;;;;;4.07;0.60;;;;;;;13.00;100.00;101290.22;5276551;28;20118;-71
2022/09/16 10:35:24;;;;;;;1.42;0.88;;;;;;;13.00;100.00;101281.28;5277053;28;20123;-71
2022/09/16 10:38:32;;;;;;;4.13;0.60;;;;;;;13.26;100.00;101286.50;5272199;28;20020;-71
2022/09/16 10:41:18;;;;;;;2.42;0.50;;;;;;;13.99;100.00;101276.22;5277536;28;20061;-70
2022/09/16 10:43:52;;;;;;;11.98;0.80;;;;;;;14.68;100.00;101278.94;5255263;28;20062;-71
2022/09/16 10:46:22;;;;;;;1.20;0.40;;;;;;;14.93;100.00;101274.13;5271187;28;20028;-71
2022/09/16 10:48:59;;;;;;;2.50;0.40;;;;;;;14.90;100.00;101281.75;5285301;28;20537;-70
2022/09/16 10:51:32;;;;;;;4.53;0.70;;;;;;;14.92;100.00;101277.88;5267895;28;20020;-71
2022/09/16 10:54:05;;;;;;;4.40;0.65;;;;;;;15.02;100.00;101264.09;5264484;28;20023;-70
2022/09/16 10:56:47;;;;;;;4.03;0.60;;;;;;;15.08;100.00;101259.81;5277384;28;20169;-71
2022/09/16 10:59:17;;;;;;;3.53;0.82;;;;;;;15.01;100.00;101257.00;5263746;28;20523;-71
2022/09/16 11:02:26;;;;;;;3.13;1.25;;;;;;;14.84;100.00;101267.13;5274120;28;20109;-70
2022/09/16 11:05:15;;;;;;;5.00;1.00;;;;;;;14.77;100.00;101275.13;5271725;28;20035;-71
2022/09/16 11:08:22;;;;;;;2.97;0.63;;;;;;;14.71;100.00;101278.56;5280066;28;20057;-70
2022/09/16 11:11:02;;;;;;;5.03;1.00;;;;;;;14.63;100.00;101281.34;5277679;28;20054;-71
2022/09/16 11:13:37;;;;;;;6.97;0.80;;;;;;;14.48;100.00;101293.94;5268933;28;20026;-70
2022/09/16 11:16:16;;;;;;;;;;;;;;;14.45;100.00;101281.59;5268393;28;20107;-70
2022/09/16 11:18:54;;;;;;;2.35;0.73;;;;;;;14.54;100.00;101292.38;5263202;28;19920;-70
2022/09/16 11:21:47;;;;;;;2.17;0.60;;;;;;;14.82;100.00;101287.25;5275568;28;20027;-70
2022/09/16 11:24:25;;;;;;;7.05;1.27;;;;;;;15.24;100.00;101295.59;5271375;28;20112;-70
2022/09/16 11:27:06;;;;;;;4.25;1.10;;;;;;;15.32;100.00;101293.81;5284968;28;20028;-70
2022/09/16 11:29:42;;;;;;;3.40;0.82;;;;;;;15.29;100.00;101301.25;5284282;28;20031;-71
2022/09/16 11:32:34;;;;;;;3.08;0.70;;;;;;;15.18;100.00;101309.84;5284605;28;20396;-70
2022/09/16 11:35:39;;;;;;;4.20;0.70;;;;;;;14.60;100.00;101311.38;5282577;28;20058;-70
2022/09/16 11:38:23;;;;;;;4.78;0.93;;;;;;;14.10;100.00;101318.13;5284037;28;20020;-71
2022/09/16 11:41:02;;;;;;;2.95;0.60;;;;;;;13.50;100.00;101320.59;5273451;28;20594;-71
2022/09/16 11:44:08;;;;;;;4.22;0.77;;;;;;;13.22;100.00;101318.34;5284329;28;20035;-71
2022/09/16 11:47:16;;;;;;;5.43;0.90;;;;;;;13.17;100.00;101326.06;5265209;28;20079;-71
2022/09/16 11:50:12;;;;;;;3.90;0.73;;;;;;;13.38;100.00;101317.44;5280200;28;20034;-70
2022/09/16 11:52:51;;;;;;;4.60;0.40;;;;;;;13.60;100.00;101308.59;5279019;28;20024;-70
2022/09/16 11:55:56;;;;;;;1.70;0.47;;;;;;;13.98;100.00;101312.28;5274413;28;20409;-71
2022/09/16 11:58:36;;;;;;;2.05;0.90;;;;;;;14.56;100.00;101312.78;5272468;28;20039;-71
2022/09/16 12:01:26;;;;;;;4.22;0.70;;;;;;;14.92;100.00;101317.53;5282124;28;20065;-70
2022/09/16 12:04:03;;;;;;;4.18;1.58;;;;;;;15.09;100.00;101313.66;5283448;28;20427;-70